createdAt,value
2023-02-05T01:05:59.453Z,3.05
2023-02-05T01:08:45.069Z,2.47
2023-02-05T01:11:30.819Z,3.13
2023-02-05T01:14:16.148Z,2.55
2023-02-05T01:17:01.588Z,1.92
2023-02-05T01:19:47.026Z,1.60
2023-02-05T01:22:32.540Z,1.48
2023-02-05T01:25:18.037Z,1.80
2023-02-05T01:28:03.917Z,1.55
2023-02-05T01:30:50.014Z,1.92
2023-02-05T01:33:35.241Z,1.83
2023-02-05T01:36:20.720Z,1.88
2023-02-05T01:39:05.908Z,2.17
2023-02-05T01:41:51.198Z,1.83
2023-02-05T01:44:37.105Z,2.00
2023-02-05T01:47:22.645Z,1.80
2023-02-05T01:50:07.954Z,7.10
2023-02-05T01:52:54.896Z,6.47
2023-02-05T01:56:00.014Z,4.20
2023-02-05T01:58:53.985Z,2.95
2023-02-05T02:01:40.901Z,3.45
2023-02-05T02:04:45.273Z,3.25
2023-02-05T02:07:30.672Z,4.72
2023-02-05T02:10:18.922Z,5.38
2023-02-05T02:13:04.374Z,3.30
2023-02-05T02:15:50.526Z,3.13
2023-02-05T02:18:38.081Z,3.38
2023-02-05T02:21:42.373Z,3.38
2023-02-05T02:25:20.267Z,3.58
2023-02-05T02:28:27.420Z,3.60
2023-02-05T02:31:29.246Z,3.50
2023-02-05T02:34:20.930Z,3.92
2023-02-05T02:37:10.377Z,4.72
2023-02-05T02:40:10.028Z,4.15
2023-02-05T02:43:08.849Z,3.78
2023-02-05T02:46:06.807Z,3.60
2023-02-05T02:48:57.313Z,4.32
2023-02-05T02:51:44.797Z,4.55
2023-02-05T02:54:32.112Z,3.78
2023-02-05T02:57:19.446Z,4.10
2023-02-05T03:00:11.498Z,3.65
2023-02-05T03:03:05.091Z,4.32
2023-02-05T03:05:52.804Z,4.50
2023-02-05T03:08:52.562Z,3.60
2023-02-05T03:11:37.746Z,3.90
2023-02-05T03:14:23.673Z,3.65
2023-02-05T03:17:09.978Z,3.97
2023-02-05T03:20:08.094Z,3.60
2023-02-05T03:22:54.812Z,3.85
2023-02-05T03:25:40.153Z,4.05
2023-02-05T03:28:27.728Z,4.18
2023-02-05T03:31:20.830Z,4.35
2023-02-05T03:34:20.639Z,3.75
2023-02-05T03:37:25.034Z,3.70
2023-02-05T03:40:26.302Z,3.50
2023-02-05T03:43:25.491Z,4.28
2023-02-05T03:46:30.596Z,3.20
2023-02-05T03:49:29.507Z,4.20
2023-02-05T03:52:27.113Z,2.63
2023-02-05T03:55:23.533Z,3.28
2023-02-05T03:58:18.402Z,3.85
2023-02-05T04:01:05.846Z,3.38
2023-02-05T04:03:51.829Z,3.58
2023-02-05T04:06:37.457Z,3.22
2023-02-05T04:09:23.093Z,3.42
2023-02-05T04:12:10.033Z,3.53
2023-02-05T04:14:57.125Z,3.17
2023-02-05T04:17:42.604Z,2.95
2023-02-05T04:20:28.626Z,3.05
2023-02-05T04:23:13.781Z,3.17
2023-02-05T04:26:00.797Z,2.97
2023-02-05T04:28:54.482Z,3.15
2023-02-05T04:31:39.835Z,2.80
2023-02-05T04:34:25.180Z,2.88
2023-02-05T04:37:10.632Z,3.50
2023-02-05T04:39:55.930Z,3.20
2023-02-05T04:42:41.247Z,3.15
2023-02-05T04:45:30.818Z,2.92
2023-02-05T04:48:15.964Z,2.88
2023-02-05T04:51:06.343Z,3.00
2023-02-05T04:53:51.636Z,3.10
2023-02-05T04:56:36.763Z,2.83
2023-02-05T04:59:22.387Z,2.92
2023-02-05T05:02:07.879Z,4.00
2023-02-05T05:04:53.002Z,3.28
2023-02-05T05:07:38.770Z,2.83
2023-02-05T05:10:24.106Z,2.40
2023-02-05T05:13:09.218Z,2.78
2023-02-05T05:15:56.400Z,3.05
2023-02-05T05:18:41.929Z,3.05
2023-02-05T05:21:27.391Z,4.15
2023-02-05T05:24:12.701Z,3.08
2023-02-05T05:26:59.718Z,2.97
2023-02-05T05:29:46.453Z,2.90
2023-02-05T05:32:31.880Z,3.40
2023-02-05T05:35:17.178Z,3.13
2023-02-05T05:38:02.475Z,2.97
2023-02-05T05:41:06.384Z,3.00
2023-02-05T05:43:55.076Z,2.90
2023-02-05T05:46:40.435Z,3.58
2023-02-05T05:49:25.766Z,2.53
2023-02-05T05:52:11.320Z,2.95
2023-02-05T05:54:56.747Z,3.53
2023-02-05T05:57:42.218Z,3.17
2023-02-05T06:00:27.368Z,2.70
2023-02-05T06:03:12.996Z,2.90
2023-02-05T06:06:07.501Z,2.50
2023-02-05T06:08:52.990Z,3.13
2023-02-05T06:11:38.952Z,3.25
2023-02-05T06:14:24.165Z,2.92
2023-02-05T06:17:09.547Z,3.20
2023-02-05T06:19:54.574Z,3.25
2023-02-05T06:22:40.925Z,3.75
2023-02-05T06:25:26.378Z,4.00
2023-02-05T06:28:11.831Z,3.65
2023-02-05T06:30:57.528Z,3.22
2023-02-05T06:33:43.795Z,4.05
2023-02-05T06:36:29.122Z,4.00
2023-02-05T06:39:14.539Z,4.65
2023-02-05T06:41:59.728Z,3.40
2023-02-05T06:44:45.078Z,3.65
2023-02-05T06:47:30.623Z,3.40
2023-02-05T06:50:16.420Z,3.72
2023-02-05T06:53:01.986Z,3.78
2023-02-05T06:55:47.100Z,3.50
2023-02-05T06:58:32.677Z,3.47
2023-02-05T07:01:18.426Z,3.65
2023-02-05T07:04:04.019Z,3.83
2023-02-05T07:06:49.206Z,4.18
2023-02-05T07:09:34.498Z,3.92
2023-02-05T07:12:20.116Z,3.42
2023-02-05T07:15:06.189Z,4.38
2023-02-05T07:17:51.430Z,4.25
2023-02-05T07:20:36.862Z,3.40
2023-02-05T07:23:22.300Z,3.35
2023-02-05T07:26:13.737Z,2.80
2023-02-05T07:28:58.881Z,3.15
2023-02-05T07:31:44.363Z,3.78
2023-02-05T07:34:29.697Z,3.85
2023-02-05T07:37:14.841Z,4.28
2023-02-05T07:40:00.238Z,4.15
2023-02-05T07:42:45.595Z,3.90
2023-02-05T07:45:31.459Z,4.00
2023-02-05T07:48:16.793Z,3.22
2023-02-05T07:51:02.439Z,4.00
2023-02-05T07:53:48.465Z,4.05
2023-02-05T07:56:33.752Z,3.97
2023-02-05T07:59:19.254Z,3.50
2023-02-05T08:02:04.526Z,3.88
2023-02-05T08:04:49.858Z,4.38
2023-02-05T08:07:37.268Z,4.20
2023-02-05T08:10:22.797Z,4.10
2023-02-05T08:13:07.948Z,3.97
2023-02-05T08:15:53.562Z,4.40
2023-02-05T08:18:38.757Z,3.30
2023-02-05T08:21:24.730Z,4.05
2023-02-05T08:24:10.610Z,3.72
2023-02-05T08:26:56.011Z,3.40
2023-02-05T08:29:41.253Z,4.00
2023-02-05T08:32:26.628Z,4.13
2023-02-05T08:35:11.889Z,3.75
2023-02-05T08:37:57.951Z,2.95
2023-02-05T08:40:43.132Z,3.67
2023-02-05T08:43:28.632Z,3.00
2023-02-05T08:46:19.158Z,3.88
2023-02-05T08:49:04.463Z,3.70
2023-02-05T08:51:49.756Z,3.90
2023-02-05T08:54:34.764Z,3.90
2023-02-05T08:57:20.327Z,4.25
2023-02-05T09:00:06.009Z,3.67
2023-02-05T09:02:51.150Z,4.07
2023-02-05T09:05:38.894Z,4.18
2023-02-05T09:08:25.529Z,3.70
2023-02-05T09:11:13.392Z,4.28
2023-02-05T09:13:59.119Z,4.35
2023-02-05T09:16:45.604Z,4.18
2023-02-05T09:19:34.577Z,4.20
2023-02-05T09:22:20.772Z,3.75
2023-02-05T09:25:06.971Z,3.78
2023-02-05T09:27:52.078Z,4.18
2023-02-05T09:30:41.409Z,3.83
2023-02-05T09:33:26.728Z,3.35
2023-02-05T09:36:21.841Z,4.28
2023-02-05T09:39:15.218Z,3.70
2023-02-05T09:42:24.492Z,3.88
2023-02-05T09:45:37.906Z,3.80
2023-02-05T09:48:32.805Z,3.88
2023-02-05T09:51:37.408Z,3.80
2023-02-05T09:54:26.998Z,3.90
2023-02-05T09:57:17.940Z,3.53
2023-02-05T10:00:28.198Z,4.00
2023-02-05T10:03:43.005Z,4.07
2023-02-05T10:06:49.884Z,4.60
2023-02-05T10:10:07.204Z,3.28
2023-02-05T10:13:20.169Z,3.92
2023-02-05T10:16:32.985Z,3.78
2023-02-05T10:19:46.625Z,3.08
2023-02-05T10:22:46.982Z,3.13
2023-02-05T10:25:54.134Z,3.72
2023-02-05T10:28:55.272Z,3.92
2023-02-05T10:32:12.207Z,4.15
2023-02-05T10:35:08.316Z,3.50
2023-02-05T10:37:57.648Z,3.92
2023-02-05T10:40:46.958Z,3.70
2023-02-05T10:43:45.163Z,4.18
2023-02-05T10:46:37.009Z,3.38
2023-02-05T10:49:35.223Z,3.92
2023-02-05T10:52:20.333Z,2.92
2023-02-05T10:55:05.871Z,2.95
2023-02-05T10:57:51.122Z,3.25
2023-02-05T11:00:36.911Z,2.60
2023-02-05T11:03:22.759Z,2.65
2023-02-05T11:06:11.274Z,2.50
2023-02-05T11:08:56.913Z,1.92
2023-02-05T11:11:42.163Z,2.22
2023-02-05T11:14:32.648Z,2.55
2023-02-05T11:17:21.092Z,2.75
2023-02-05T11:20:24.323Z,2.60
2023-02-05T11:23:21.885Z,2.47
2023-02-05T11:26:22.119Z,2.58
2023-02-05T11:29:20.805Z,2.10
2023-02-05T11:32:19.307Z,2.23
2023-02-05T11:35:18.037Z,2.05
2023-02-05T11:38:09.809Z,2.80
2023-02-05T11:40:57.937Z,2.80
2023-02-05T11:43:50.848Z,2.97
2023-02-05T11:46:44.344Z,3.03
2023-02-05T11:49:34.884Z,2.72
2023-02-05T11:52:27.301Z,3.30
2023-02-05T11:55:26.471Z,2.85
2023-02-05T11:58:36.218Z,2.10
2023-02-05T12:01:24.433Z,3.22
2023-02-05T12:04:12.621Z,2.45
2023-02-05T12:07:06.468Z,3.00
2023-02-05T12:09:58.829Z,2.75
2023-02-05T12:12:58.533Z,2.58
2023-02-05T12:15:58.364Z,3.25
2023-02-05T12:19:11.323Z,3.10
2023-02-05T12:22:07.297Z,2.60
2023-02-05T12:25:19.509Z,2.90
2023-02-05T12:28:14.270Z,2.28
2023-02-05T12:31:19.558Z,3.15
2023-02-05T12:34:39.049Z,2.78
2023-02-05T12:37:27.611Z,2.58
2023-02-05T12:40:32.845Z,2.63
2023-02-05T12:43:39.167Z,2.65
2023-02-05T12:46:36.021Z,2.90
2023-02-05T12:49:35.250Z,2.40
2023-02-05T12:52:45.097Z,1.98
2023-02-05T12:56:14.104Z,2.53
2023-02-05T12:59:05.260Z,2.25
2023-02-05T13:01:59.807Z,2.83
2023-02-05T13:05:10.153Z,2.78
2023-02-05T13:07:59.683Z,3.00
2023-02-05T13:11:09.084Z,2.15
2023-02-05T13:14:13.929Z,2.70
2023-02-05T13:17:15.615Z,2.50
2023-02-05T13:20:05.182Z,2.50
2023-02-05T13:23:15.497Z,2.80
2023-02-05T13:26:08.513Z,2.53
